Time;durP1;ratioP1;P1;durP2;ratioP2;P2;SDS_P1;SDS_P2;PMS_P1;PMS_P2;Temp;Humidity;BMP_temperature;BMP_pressure;BME280_temperature;BME280_humidity;BME280_pressure;Samples;Min_cycle;Max_cycle;Signal;HPM_P1;HPM_P2
2021/08/31 00:03:58;;;;;;;1999.90;999.90;;;;;;;17.90;79.98;101311.56;15809279;28;20053;-62
2021/08/31 00:11:30;;;;;;;1999.90;999.90;;;;;;;17.85;79.87;101309.88;15809572;28;20048;-60
2021/08/31 00:19:04;;;;;;;1999.90;999.90;;;;;;;17.75;79.62;101312.44;15809380;28;20071;-62
2021/08/31 00:26:36;;;;;;;1999.90;999.90;;;;;;;17.75;79.81;101310.44;15735519;28;20055;-62
2021/08/31 00:34:10;;;;;;;1999.90;999.90;;;;;;;17.70;79.95;101307.91;15728562;28;20040;-63
2021/08/31 00:41:43;;;;;;;1999.90;999.90;;;;;;;17.76;79.64;101303.63;15744436;28;20486;-59
2021/08/31 00:49:17;;;;;;;1999.90;999.90;;;;;;;17.70;79.45;101293.78;15743483;28;20130;-60
2021/08/31 00:56:50;;;;;;;1999.90;999.90;;;;;;;17.43;80.74;101311.66;15744516;28;20041;-60
2021/08/31 01:04:25;;;;;;;1999.90;999.90;;;;;;;17.65;80.43;101313.81;15744408;28;20475;-63
2021/08/31 01:11:58;;;;;;;1999.90;999.90;;;;;;;17.52;80.39;101313.09;15729743;28;20051;-62
2021/08/31 01:19:32;;;;;;;1999.90;999.90;;;;;;;17.57;80.29;101315.63;15751088;28;20059;-59
2021/08/31 01:27:06;;;;;;;1999.90;999.90;;;;;;;17.46;81.13;101308.91;15801298;28;20048;-59
2021/08/31 01:34:38;;;;;;;1999.90;999.90;;;;;;;17.47;81.08;101298.44;15805034;28;20054;-57
2021/08/31 01:42:12;;;;;;;1999.90;999.90;;;;;;;17.30;82.10;101300.47;15803490;28;20101;-57
2021/08/31 01:49:44;;;;;;;1999.90;999.90;;;;;;;17.38;81.33;101328.84;15803622;28;20067;-60
2021/08/31 01:57:18;;;;;;;1999.90;999.90;;;;;;;17.28;81.82;101325.38;15794575;28;20044;-58
2021/08/31 02:04:51;;;;;;;1999.90;999.90;;;;;;;17.36;80.87;101332.03;15805421;28;20067;-61
2021/08/31 02:12:24;;;;;;;1999.90;999.90;;;;;;;17.26;81.81;101315.66;15802468;28;20094;-61
2021/08/31 02:19:56;;;;;;;1999.90;999.90;;;;;;;17.31;81.03;101310.56;15803669;28;20046;-61
2021/08/31 02:27:30;;;;;;;1999.90;999.90;;;;;;;17.22;81.62;101306.28;15803115;28;20040;-61
2021/08/31 02:35:04;;;;;;;1999.90;999.90;;;;;;;17.18;81.20;101322.28;15802524;28;20420;-61
2021/08/31 02:42:40;;;;;;;;;;;;;;;17.13;81.60;101319.75;15809506;28;20048;-57
2021/08/31 02:50:12;;;;;;;1999.90;999.90;;;;;;;17.18;81.22;101311.81;15813831;28;19920;-62
2021/08/31 02:57:46;;;;;;;1999.90;999.90;;;;;;;17.27;81.01;101314.47;15814922;28;20054;-59
2021/08/31 03:05:18;;;;;;;1999.90;999.90;;;;;;;17.19;81.42;101309.81;15813703;28;20036;-59
2021/08/31 03:12:53;;;;;;;1999.90;999.90;;;;;;;17.23;80.99;101319.22;15812151;28;20063;-58
2021/08/31 03:20:28;;;;;;;1999.90;999.90;;;;;;;17.16;81.80;101311.38;15808474;28;20068;-59
2021/08/31 03:28:05;;;;;;;1999.90;999.90;;;;;;;17.20;81.54;101325.59;15747810;28;20072;-61
2021/08/31 03:35:37;;;;;;;1999.90;999.90;;;;;;;16.90;83.15;101333.66;15749031;28;20417;-60
2021/08/31 03:43:11;;;;;;;1999.90;999.90;;;;;;;17.23;80.88;101339.78;15747607;28;20046;-59
2021/08/31 03:50:43;;;;;;;1999.90;999.90;;;;;;;17.19;81.32;101349.31;15748174;28;20049;-59
2021/08/31 03:58:20;;;;;;;1999.90;999.90;;;;;;;17.26;80.61;101364.41;15748440;28;20127;-60
2021/08/31 04:05:53;;;;;;;1999.90;999.90;;;;;;;17.30;80.12;101356.88;15745876;28;20040;-59
2021/08/31 04:13:35;;;;;;;1999.90;999.90;;;;;;;17.44;79.58;101361.25;15747373;28;20044;-59
2021/08/31 04:21:07;;;;;;;1999.90;999.90;;;;;;;17.14;81.04;101355.22;15755626;28;20054;-59
2021/08/31 04:28:41;;;;;;;1999.90;999.90;;;;;;;17.26;80.38;101372.06;15790068;28;20245;-60
2021/08/31 04:36:13;;;;;;;1999.90;999.90;;;;;;;17.04;80.97;101370.66;15806513;28;20051;-61
2021/08/31 04:43:46;;;;;;;1999.90;999.90;;;;;;;17.11;81.16;101370.06;15808100;28;20478;-61
2021/08/31 04:51:21;;;;;;;1999.90;999.90;;;;;;;17.23;79.58;101367.16;15807321;28;20044;-60
2021/08/31 04:58:55;;;;;;;1999.90;999.90;;;;;;;17.22;79.18;101357.88;15806955;28;20421;-60
2021/08/31 05:06:28;;;;;;;1999.90;999.90;;;;;;;17.23;79.01;101373.63;15787228;28;20048;-62
2021/08/31 05:14:09;;;;;;;1999.90;999.90;;;;;;;17.25;79.09;101361.97;15806712;28;20040;-62
2021/08/31 05:21:47;;;;;;;1999.90;999.90;;;;;;;17.34;78.19;101364.63;15790651;28;20063;-63
2021/08/31 05:29:21;;;;;;;1999.90;999.90;;;;;;;17.12;79.77;101371.69;15741483;28;20044;-58
2021/08/31 05:36:53;;;;;;;1999.90;999.90;;;;;;;17.28;78.13;101384.59;15742347;28;20090;-63
2021/08/31 05:44:31;;;;;;;1999.90;999.90;;;;;;;17.33;78.31;101388.38;15742121;28;20037;-58
2021/08/31 05:52:06;;;;;;;1999.90;999.90;;;;;;;17.21;78.59;101381.63;15741904;28;20049;-60
2021/08/31 05:59:42;;;;;;;1999.90;999.90;;;;;;;17.21;79.02;101387.25;15741172;28;20405;-58
2021/08/31 06:07:18;;;;;;;1999.90;999.90;;;;;;;17.36;78.23;101385.63;15741193;28;20052;-59
2021/08/31 06:14:57;;;;;;;1999.90;999.90;;;;;;;17.31;78.46;101391.56;15739896;28;20056;-60
2021/08/31 06:22:29;;;;;;;1999.90;999.90;;;;;;;17.24;78.43;101397.00;15760795;28;20047;-59
2021/08/31 06:30:04;;;;;;;1999.90;999.90;;;;;;;17.23;78.29;101396.16;15801532;28;20044;-59
2021/08/31 06:37:36;;;;;;;1999.90;999.90;;;;;;;17.30;78.12;101401.19;15801324;28;20575;-59
2021/08/31 06:45:15;;;;;;;1999.90;999.90;;;;;;;17.46;77.81;101402.00;15802352;28;20127;-63
2021/08/31 06:52:50;;;;;;;1999.90;999.90;;;;;;;17.27;78.46;101408.34;15801621;28;20040;-62
2021/08/31 07:00:24;;;;;;;1999.90;999.90;;;;;;;17.56;78.09;101415.56;15802078;28;20056;-61
2021/08/31 07:07:56;;;;;;;1999.90;999.90;;;;;;;17.60;77.78;101418.47;15799655;28;20039;-62
2021/08/31 07:15:30;;;;;;;1999.90;999.90;;;;;;;17.71;77.08;101433.72;15800128;28;20044;-62
2021/08/31 07:23:03;;;;;;;1999.90;999.90;;;;;;;17.74;76.91;101435.84;15775807;28;20114;-59
2021/08/31 07:30:41;;;;;;;1999.90;999.90;;;;;;;17.75;77.31;101448.75;15747400;28;20056;-61
2021/08/31 07:38:14;;;;;;;1999.90;999.90;;;;;;;17.95;76.89;101448.84;15749047;28;20116;-60
2021/08/31 07:45:47;;;;;;;1999.90;999.90;;;;;;;18.83;74.58;101454.91;15749495;28;20551;-62
2021/08/31 07:53:29;;;;;;;1999.90;999.90;;;;;;;19.21;72.35;101456.91;15759035;28;20063;-62
2021/08/31 08:01:02;;;;;;;1999.90;999.90;;;;;;;20.13;70.24;101454.94;15810406;28;20055;-61
2021/08/31 08:08:37;;;;;;;1999.90;999.90;;;;;;;20.92;67.03;101462.56;15809470;28;20048;-59
2021/08/31 08:16:14;;;;;;;1999.90;999.90;;;;;;;20.38;68.55;101467.47;15810066;28;20040;-57
2021/08/31 08:23:53;;;;;;;1999.90;999.90;;;;;;;19.86;69.39;101473.91;15809626;28;20055;-59
2021/08/31 08:31:27;;;;;;;1999.90;999.90;;;;;;;21.03;66.59;101480.53;15808858;28;20068;-59
2021/08/31 08:38:59;;;;;;;1999.90;999.90;;;;;;;21.72;64.14;101472.41;15808410;28;20063;-60
2021/08/31 08:46:34;;;;;;;1999.90;999.90;;;;;;;21.27;65.13;101471.56;15808008;28;20486;-56
2021/08/31 08:54:09;;;;;;;1999.90;999.90;;;;;;;20.89;65.23;101486.84;15807189;28;20470;-59
2021/08/31 09:01:47;;;;;;;1999.90;999.90;;;;;;;20.91;65.79;101494.97;15807098;28;20070;-59
2021/08/31 09:09:21;;;;;;;1999.90;999.90;;;;;;;20.52;67.16;101491.59;15806263;28;20118;-57
2021/08/31 09:17:24;;;;;;;1999.90;999.90;;;;;;;21.48;64.51;101501.38;15804825;28;20122;-59
2021/08/31 09:25:38;;;;;;;1999.90;999.90;;;;;;;20.95;65.38;101502.34;15756782;28;20444;-60
2021/08/31 09:33:15;;;;;;;1999.90;999.90;;;;;;;21.78;64.10;101504.09;15721725;28;20063;-61
2021/08/31 09:40:49;;;;;;;1999.90;999.90;;;;;;;21.36;63.10;101499.59;15740385;28;20068;-59
2021/08/31 09:48:41;;;;;;;1999.90;999.90;;;;;;;22.55;60.85;101503.16;15741372;28;20049;-60
2021/08/31 09:56:15;;;;;;;1999.90;999.90;;;;;;;21.12;62.75;101511.47;15739994;28;20051;-60
2021/08/31 10:03:49;;;;;;;1999.90;999.90;;;;;;;21.32;63.89;101516.63;15739564;28;20523;-59
2021/08/31 10:11:25;;;;;;;1999.90;999.90;;;;;;;22.35;61.19;101516.84;15739890;28;20049;-58
2021/08/31 10:18:59;;;;;;;1999.90;999.90;;;;;;;22.72;60.13;101524.41;15740678;28;20127;-58
2021/08/31 10:26:34;;;;;;;1999.90;999.90;;;;;;;22.41;59.39;101518.09;15793292;28;20044;-60
2021/08/31 10:34:40;;;;;;;1999.90;999.90;;;;;;;22.03;61.31;101524.25;15802638;28;20413;-56
2021/08/31 10:42:13;;;;;;;1999.90;999.90;;;;;;;21.49;62.12;101537.09;15802567;28;20117;-61
2021/08/31 10:50:15;;;;;;;1999.90;999.90;;;;;;;23.15;59.32;101525.47;15783859;28;20416;-57
2021/08/31 10:57:49;;;;;;;1999.90;999.90;;;;;;;23.73;59.10;101533.00;15801449;28;20306;-57
2021/08/31 11:05:26;;;;;;;1999.90;999.90;;;;;;;23.61;59.54;101542.75;15809857;28;20092;-58
2021/08/31 11:13:10;;;;;;;1999.90;999.90;;;;;;;22.84;61.15;101555.41;15812791;28;20040;-60
2021/08/31 11:20:45;;;;;;;1999.90;999.90;;;;;;;22.05;62.83;101550.25;15808620;28;20134;-59
2021/08/31 11:28:21;;;;;;;1999.90;999.90;;;;;;;23.34;58.01;101555.63;15749152;28;20127;-60
2021/08/31 11:35:55;;;;;;;1999.90;999.90;;;;;;;22.38;60.01;101558.69;15748502;28;20043;-60
2021/08/31 11:43:32;;;;;;;1999.90;999.90;;;;;;;23.74;57.95;101565.97;15748758;28;20044;-59
2021/08/31 11:51:05;;;;;;;1999.90;999.90;;;;;;;24.50;54.14;101570.56;15750499;28;20116;-58
2021/08/31 11:58:43;;;;;;;;;;;;;;;24.04;56.05;101576.22;15751042;28;20133;-59
2021/08/31 12:06:15;;;;;;;1999.90;999.90;;;;;;;24.85;51.80;101571.75;15747938;28;19956;-60
2021/08/31 12:13:49;;;;;;;;;;;;;;;23.30;54.85;101583.28;15747844;28;20127;-58
2021/08/31 12:21:23;;;;;;;1999.90;999.90;;;;;;;24.96;51.60;101587.63;15759139;28;20011;-59
2021/08/31 12:29:00;;;;;;;1999.90;999.90;;;;;;;24.87;51.88;101589.28;15810759;28;20056;-59
2021/08/31 12:36:35;;;;;;;1999.90;999.90;;;;;;;25.99;47.74;101591.31;15809307;28;20040;-59
2021/08/31 12:44:17;;;;;;;1999.90;999.90;;;;;;;27.65;43.81;101595.88;15808504;28;20040;-61
2021/08/31 12:51:53;;;;;;;1999.90;999.90;;;;;;;29.12;41.38;101613.22;15810189;28;20123;-59
2021/08/31 12:59:33;;;;;;;1999.90;999.90;;;;;;;29.15;40.03;101609.47;15807526;28;20511;-59
2021/08/31 13:07:09;;;;;;;1999.90;999.90;;;;;;;29.96;39.36;101626.25;15807273;28;20386;-59
2021/08/31 13:14:42;;;;;;;1999.90;999.90;;;;;;;29.61;37.87;101610.63;15806361;28;20089;-61
2021/08/31 13:22:15;;;;;;;1999.90;999.90;;;;;;;28.88;39.16;101611.59;15786462;28;20165;-61
2021/08/31 13:29:48;;;;;;;1999.90;999.90;;;;;;;30.76;36.77;101606.69;15742266;28;20506;-58
2021/08/31 13:37:23;;;;;;;1999.90;999.90;;;;;;;26.85;43.42;101589.41;15742686;28;20093;-59
2021/08/31 13:44:57;;;;;;;1999.90;999.90;;;;;;;24.69;47.07;101592.97;15740287;28;20036;-58
2021/08/31 13:52:29;;;;;;;1999.90;999.90;;;;;;;25.97;43.64;101583.16;15740768;28;20450;-57
2021/08/31 14:00:04;;;;;;;1999.90;999.90;;;;;;;24.65;43.75;101586.44;15739669;28;20052;-60
2021/08/31 14:07:46;;;;;;;1999.90;999.90;;;;;;;23.80;46.68;101577.81;15739010;28;20438;-57
2021/08/31 14:15:22;;;;;;;1999.90;999.90;;;;;;;22.92;47.05;101585.50;15740976;28;20052;-59
2021/08/31 14:22:55;;;;;;;1999.90;999.90;;;;;;;22.76;46.52;101582.13;15762701;28;20545;-59
2021/08/31 14:30:34;;;;;;;1999.90;999.90;;;;;;;22.85;47.29;101593.22;15802541;28;20060;-60
2021/08/31 14:38:06;;;;;;;1999.90;999.90;;;;;;;22.62;47.47;101587.75;15814937;28;20053;-60
2021/08/31 14:45:40;;;;;;;1999.90;999.90;;;;;;;22.64;46.15;101603.19;15822445;28;20463;-61
2021/08/31 14:53:12;;;;;;;1999.90;999.90;;;;;;;22.37;46.95;101607.41;15823076;28;20081;-58
2021/08/31 15:00:49;;;;;;;1999.90;999.90;;;;;;;22.29;47.63;101614.25;15821462;28;20105;-57
2021/08/31 15:08:21;;;;;;;1999.90;999.90;;;;;;;21.83;49.37;101625.94;15822427;28;20301;-56
2021/08/31 15:15:55;;;;;;;1999.90;999.90;;;;;;;22.35;49.66;101618.38;15823018;28;20394;-57
2021/08/31 15:23:27;;;;;;;1999.90;999.90;;;;;;;22.33;50.31;101600.91;15775960;28;20135;-58
2021/08/31 15:31:29;;;;;;;1999.90;999.90;;;;;;;22.16;50.34;101605.19;15758214;28;20048;-59
2021/08/31 15:39:05;;;;;;;1999.90;999.90;;;;;;;22.42;50.56;101602.19;15756810;28;20048;-62
2021/08/31 15:46:39;;;;;;;1999.90;999.90;;;;;;;22.17;50.63;101613.31;15755659;28;20497;-61
2021/08/31 15:54:13;;;;;;;1999.90;999.90;;;;;;;22.31;51.32;101614.69;15747803;28;20048;-60
2021/08/31 16:01:45;;;;;;;1999.90;999.90;;;;;;;22.45;51.67;101607.09;15748790;28;20068;-58
2021/08/31 16:09:19;;;;;;;1999.90;999.90;;;;;;;22.28;51.02;101606.91;15747805;28;20460;-58
2021/08/31 16:16:51;;;;;;;1999.90;999.90;;;;;;;22.13;51.65;101617.34;15746993;28;20724;-58
2021/08/31 16:24:24;;;;;;;1999.90;999.90;;;;;;;21.80;52.09;101619.00;15783669;28;20131;-58
2021/08/31 16:32:03;;;;;;;1999.90;999.90;;;;;;;21.70;52.35;101610.38;15807319;28;20048;-58
2021/08/31 16:39:46;;;;;;;1999.90;999.90;;;;;;;21.76;52.48;101623.00;15808528;28;20090;-60
2021/08/31 16:47:18;;;;;;;1999.90;999.90;;;;;;;21.44;53.39;101623.41;15807597;28;20032;-59
2021/08/31 16:55:02;;;;;;;1999.90;999.90;;;;;;;21.29;53.40;101621.59;15807659;28;20508;-57
2021/08/31 17:03:27;;;;;;;;;;;;;;;;;;;;;
2021/08/31 17:11:18;;;;;;;1999.90;999.90;;;;;;;21.21;53.63;101631.19;15798315;28;20063;-61
2021/08/31 17:18:50;;;;;;;1999.90;999.90;;;;;;;20.66;54.35;101644.94;15804514;28;20051;-60
2021/08/31 17:26:27;;;;;;;1999.90;999.90;;;;;;;20.97;54.68;101652.31;15752296;28;20082;-57
2021/08/31 17:34:00;;;;;;;1999.90;999.90;;;;;;;20.73;54.83;101651.53;15741905;28;20135;-61
2021/08/31 17:41:37;;;;;;;1999.90;999.90;;;;;;;20.56;56.60;101663.41;15741179;28;20466;-59
2021/08/31 17:49:12;;;;;;;1999.90;999.90;;;;;;;20.18;57.20;101670.78;15743625;28;20045;-58
2021/08/31 17:56:46;;;;;;;1999.90;999.90;;;;;;;20.25;56.63;101672.13;15741676;28;20047;-57
2021/08/31 18:04:32;;;;;;;1999.90;999.90;;;;;;;20.12;55.48;101685.66;15739893;28;20048;-61
2021/08/31 18:12:07;;;;;;;1999.90;999.90;;;;;;;20.16;56.18;101687.34;15740238;28;20037;-59
2021/08/31 18:19:39;;;;;;;1999.90;999.90;;;;;;;19.91;55.04;101707.88;15740561;28;20563;-59
2021/08/31 18:27:13;;;;;;;1999.90;999.90;;;;;;;19.73;57.70;101713.16;15799497;28;20055;-59
2021/08/31 18:34:45;;;;;;;1999.90;999.90;;;;;;;19.63;58.93;101725.91;15803392;28;20048;-59
2021/08/31 18:42:19;;;;;;;1999.90;999.90;;;;;;;19.46;59.54;101729.91;15784432;28;20093;-59
2021/08/31 18:49:51;;;;;;;1999.90;999.90;;;;;;;19.22;60.01;101738.66;15802052;28;20044;-59
2021/08/31 18:57:25;;;;;;;1999.90;999.90;;;;;;;18.93;61.18;101734.28;15802523;28;20040;-58
2021/08/31 19:04:57;;;;;;;1999.90;999.90;;;;;;;18.76;61.66;101749.63;15802102;28;20091;-59
2021/08/31 19:12:31;;;;;;;1999.90;999.90;;;;;;;18.65;62.14;101742.84;15801651;28;20048;-61
2021/08/31 19:20:04;;;;;;;1999.90;999.90;;;;;;;18.41;63.89;101755.94;15802361;28;20064;-60
2021/08/31 19:27:38;;;;;;;1999.90;999.90;;;;;;;18.36;63.68;101759.03;15755204;28;20049;-58
2021/08/31 19:35:10;;;;;;;1999.90;999.90;;;;;;;18.19;64.39;101767.81;15752825;28;20044;-59
2021/08/31 19:42:44;;;;;;;1999.90;999.90;;;;;;;18.06;65.34;101772.69;15749895;28;20101;-59
2021/08/31 19:50:16;;;;;;;1999.90;999.90;;;;;;;17.84;65.83;101770.41;15749839;28;20048;-61
2021/08/31 19:57:50;;;;;;;1999.90;999.90;;;;;;;17.76;66.39;101771.38;15791738;28;20686;-61
2021/08/31 20:05:24;;;;;;;1999.90;999.90;;;;;;;17.56;67.35;101773.16;15810135;28;20048;-56
2021/08/31 20:12:58;;;;;;;1999.90;999.90;;;;;;;17.40;67.91;101772.22;15811119;28;20123;-56
2021/08/31 20:20:34;;;;;;;1999.90;999.90;;;;;;;17.40;67.93;101775.03;15808603;28;20050;-60
2021/08/31 20:28:08;;;;;;;1999.90;999.90;;;;;;;17.23;68.74;101784.59;15808314;28;20089;-60
2021/08/31 20:35:40;;;;;;;1999.90;999.90;;;;;;;17.09;69.22;101796.22;15808303;28;20122;-60
2021/08/31 20:43:17;;;;;;;;;;;;;;;17.09;69.12;101796.22;15807680;28;20135;-55
2021/08/31 20:51:08;;;;;;;1999.90;999.90;;;;;;;16.94;70.28;101794.91;15806995;28;19924;-58
2021/08/31 20:59:10;;;;;;;1999.90;999.90;;;;;;;16.82;70.22;101808.16;15805268;28;20028;-60
2021/08/31 21:06:46;;;;;;;1999.90;999.90;;;;;;;16.64;71.12;101810.31;15802727;28;20496;-58
2021/08/31 21:14:18;;;;;;;1999.90;999.90;;;;;;;16.69;70.78;101813.75;15804975;28;20043;-58
2021/08/31 21:21:55;;;;;;;1999.90;999.90;;;;;;;16.58;71.60;101818.16;15789891;28;20079;-58
2021/08/31 21:30:21;;;;;;;1999.90;999.90;;;;;;;16.56;71.56;101817.66;15741190;28;20052;-59
2021/08/31 21:37:54;;;;;;;1999.90;999.90;;;;;;;16.47;71.86;101816.97;15726237;28;20045;-60
2021/08/31 21:45:26;;;;;;;1999.90;999.90;;;;;;;16.34;71.30;101816.06;15739756;28;20571;-58
2021/08/31 21:53:00;;;;;;;1999.90;999.90;;;;;;;16.31;71.50;101818.75;15740839;28;20040;-55
2021/08/31 22:00:32;;;;;;;1999.90;999.90;;;;;;;16.18;72.01;101834.78;15739885;28;20051;-58
2021/08/31 22:08:07;;;;;;;1999.90;999.90;;;;;;;16.10;72.21;101839.31;15740746;28;20072;-58
2021/08/31 22:15:39;;;;;;;1999.90;999.90;;;;;;;15.94;72.37;101841.06;15743533;28;20414;-59
2021/08/31 22:23:14;;;;;;;1999.90;999.90;;;;;;;15.83;72.46;101849.09;15770757;28;20036;-57
2021/08/31 22:30:47;;;;;;;1999.90;999.90;;;;;;;15.82;72.38;101841.00;15801239;28;20044;-61
2021/08/31 22:38:21;;;;;;;1999.90;999.90;;;;;;;15.70;72.74;101841.75;15802814;28;20097;-60
2021/08/31 22:45:53;;;;;;;1999.90;999.90;;;;;;;15.76;72.83;101846.03;15785488;28;20048;-57
2021/08/31 22:53:27;;;;;;;1999.90;999.90;;;;;;;15.70;73.33;101853.00;15802426;28;20068;-56
2021/08/31 23:00:59;;;;;;;1999.90;999.90;;;;;;;15.47;73.98;101855.25;15809277;28;20072;-57
2021/08/31 23:08:33;;;;;;;1999.90;999.90;;;;;;;15.43;73.93;101843.03;15809790;28;20046;-56
2021/08/31 23:16:05;;;;;;;1999.90;999.90;;;;;;;15.38;74.10;101848.03;15811282;28;20063;-60
2021/08/31 23:23:39;;;;;;;1999.90;999.90;;;;;;;15.29;74.08;101848.06;15811129;28;20048;-57
2021/08/31 23:31:13;;;;;;;1999.90;999.90;;;;;;;15.23;74.17;101853.06;15811383;28;20505;-58
2021/08/31 23:38:49;;;;;;;1999.90;999.90;;;;;;;15.04;74.68;101857.44;15790196;28;20035;-59
2021/08/31 23:46:21;;;;;;;;;;;;;;;15.10;74.79;101862.50;15780354;28;20044;-61
2021/08/31 23:53:55;;;;;;;1999.90;999.90;;;;;;;14.99;74.82;101858.44;15758888;28;20374;-55
